sensor_id;sensor_type;location;lat;lon;timestamp;pressure;altitude;pressure_sealevel;temperature;humidity
59767;BME280;46248;58.364;25.582;2022-11-15T18:16:32;100890.16;;;1.88;96.59
59767;BME280;46248;58.364;25.582;2022-11-15T18:19:54;100892.75;;;1.86;97.04
59767;BME280;46248;58.364;25.582;2022-11-15T18:23:16;100886.72;;;1.84;97.23
59767;BME280;46248;58.364;25.582;2022-11-15T18:26:38;100903.94;;;1.87;97.43
59767;BME280;46248;58.364;25.582;2022-11-15T18:30:00;100911.69;;;1.83;96.82
59767;BME280;46248;58.364;25.582;2022-11-15T18:33:23;100908.28;;;1.78;96.41
59767;BME280;46248;58.364;25.582;2022-11-15T18:36:48;100920.34;;;1.78;97.08
59767;BME280;46248;58.364;25.582;2022-11-15T18:40:11;100898.09;;;1.68;96.79
59767;BME280;46248;58.364;25.582;2022-11-15T18:43:34;100901.47;;;1.74;96.78
59767;BME280;46248;58.364;25.582;2022-11-15T18:46:56;100947.94;;;1.76;95.80
59767;BME280;46248;58.364;25.582;2022-11-15T18:50:20;100925.50;;;1.81;95.99
59767;BME280;46248;58.364;25.582;2022-11-15T18:53:42;100931.53;;;1.78;93.52
59767;BME280;46248;58.364;25.582;2022-11-15T18:57:04;100933.28;;;1.79;93.86
59767;BME280;46248;58.364;25.582;2022-11-15T19:00:26;100926.38;;;1.78;93.28
59767;BME280;46248;58.364;25.582;2022-11-15T19:03:49;100935.84;;;1.78;92.29
59767;BME280;46248;58.364;25.582;2022-11-15T19:07:13;100938.47;;;1.76;92.76
59767;BME280;46248;58.364;25.582;2022-11-15T19:10:34;100946.19;;;1.75;93.04
59767;BME280;46248;58.364;25.582;2022-11-15T19:13:58;100952.25;;;1.72;93.49
59767;BME280;46248;58.364;25.582;2022-11-15T19:17:22;100964.25;;;1.78;93.76
59767;BME280;46248;58.364;25.582;2022-11-15T19:20:44;100972.03;;;1.72;92.71
59767;BME280;46248;58.364;25.582;2022-11-15T19:24:08;100960.97;;;1.60;91.26
59767;BME280;46248;58.364;25.582;2022-11-15T19:27:30;100994.50;;;1.64;89.63
59767;BME280;46248;58.364;25.582;2022-11-15T19:31:02;100984.19;;;1.59;88.97
59767;BME280;46248;58.364;25.582;2022-11-15T19:34:25;100986.75;;;1.59;89.26
59767;BME280;46248;58.364;25.582;2022-11-15T19:37:47;100991.06;;;1.57;89.86
59767;BME280;46248;58.364;25.582;2022-11-15T19:41:14;100993.69;;;1.52;88.98
59767;BME280;46248;58.364;25.582;2022-11-15T19:44:36;100993.69;;;1.51;88.81
59767;BME280;46248;58.364;25.582;2022-11-15T19:47:57;100996.31;;;1.49;89.10
59767;BME280;46248;58.364;25.582;2022-11-15T19:51:21;101002.31;;;1.51;90.29
59767;BME280;46248;58.364;25.582;2022-11-15T19:54:43;101003.16;;;1.50;90.10
59767;BME280;46248;58.364;25.582;2022-11-15T19:58:06;101005.75;;;1.50;90.26
59767;BME280;46248;58.364;25.582;2022-11-15T20:01:29;101013.50;;;1.49;90.33
59767;BME280;46248;58.364;25.582;2022-11-15T20:04:52;101017.81;;;1.47;90.30
59767;BME280;46248;58.364;25.582;2022-11-15T20:08:14;101020.38;;;1.50;90.78
59767;BME280;46248;58.364;25.582;2022-11-15T20:11:36;101022.09;;;1.48;90.57
59767;BME280;46248;58.364;25.582;2022-11-15T20:15:00;101028.16;;;1.42;89.48
59767;BME280;46248;58.364;25.582;2022-11-15T20:18:25;101032.47;;;1.40;89.88
59767;BME280;46248;58.364;25.582;2022-11-15T20:21:48;101015.25;;;1.39;89.79
59767;BME280;46248;58.364;25.582;2022-11-15T20:25:10;101023.91;;;1.36;88.74
59767;BME280;46248;58.364;25.582;2022-11-15T20:28:31;101029.94;;;1.31;88.28
59767;BME280;46248;58.364;25.582;2022-11-15T20:31:55;101045.41;;;1.32;87.76
59767;BME280;46248;58.364;25.582;2022-11-15T20:35:17;101035.09;;;1.31;88.69
59767;BME280;46248;58.364;25.582;2022-11-15T20:38:39;101041.97;;;1.36;89.05
59767;BME280;46248;58.364;25.582;2022-11-15T20:42:04;101040.25;;;1.32;88.67
59767;BME280;46248;58.364;25.582;2022-11-15T20:45:29;101039.41;;;1.30;88.63
59767;BME280;46248;58.364;25.582;2022-11-15T20:48:52;101020.53;;;1.21;88.58
59767;BME280;46248;58.364;25.582;2022-11-15T20:52:14;101054.00;;;1.37;88.25
59767;BME280;46248;58.364;25.582;2022-11-15T20:55:38;101051.41;;;1.36;87.86
59767;BME280;46248;58.364;25.582;2022-11-15T20:59:03;101047.97;;;1.38;87.69
59767;BME280;46248;58.364;25.582;2022-11-15T21:02:25;101055.69;;;1.38;88.26
59767;BME280;46248;58.364;25.582;2022-11-15T21:05:53;101063.44;;;1.40;87.80
59767;BME280;46248;58.364;25.582;2022-11-15T21:09:15;101065.16;;;1.41;87.81
59767;BME280;46248;58.364;25.582;2022-11-15T21:12:54;101061.72;;;1.37;86.91
59767;BME280;46248;58.364;25.582;2022-11-15T21:16:16;101066.91;;;1.37;86.21
59767;BME280;46248;58.364;25.582;2022-11-15T21:19:38;101077.19;;;1.41;87.88
59767;BME280;46248;58.364;25.582;2022-11-15T21:23:01;101082.38;;;1.41;86.57
59767;BME280;46248;58.364;25.582;2022-11-15T21:26:23;101075.47;;;1.38;86.69
59767;BME280;46248;58.364;25.582;2022-11-15T21:29:45;101071.22;;;1.32;86.59
59767;BME280;46248;58.364;25.582;2022-11-15T21:33:09;101085.81;;;1.43;87.21
59767;BME280;46248;58.364;25.582;2022-11-15T21:36:31;101085.81;;;1.43;87.10
59767;BME280;46248;58.364;25.582;2022-11-15T21:39:55;101084.91;;;1.45;87.21
59767;BME280;46248;58.364;25.582;2022-11-15T21:43:17;101084.06;;;1.38;87.35
59767;BME280;46248;58.364;25.582;2022-11-15T21:46:39;101087.50;;;1.42;87.15
59767;BME280;46248;58.364;25.582;2022-11-15T21:50:01;101084.94;;;1.41;86.57
59767;BME280;46248;58.364;25.582;2022-11-15T21:53:24;101090.09;;;1.39;86.27
59767;BME280;46248;58.364;25.582;2022-11-15T21:56:48;101085.81;;;1.38;85.67
59767;BME280;46248;58.364;25.582;2022-11-15T22:00:11;101083.22;;;1.38;85.41
59767;BME280;46248;58.364;25.582;2022-11-15T22:04:04;101091.84;;;1.34;85.14
59767;BME280;46248;58.364;25.582;2022-11-15T22:07:26;101091.00;;;1.36;85.15
59767;BME280;46248;58.364;25.582;2022-11-15T22:10:49;101085.84;;;1.30;85.16
59767;BME280;46248;58.364;25.582;2022-11-15T22:14:13;101082.41;;;1.31;84.87
59767;BME280;46248;58.364;25.582;2022-11-15T22:17:37;101092.72;;;1.34;85.48
59767;BME280;46248;58.364;25.582;2022-11-15T22:21:16;101080.66;;;1.36;85.57
59767;BME280;46248;58.364;25.582;2022-11-15T22:24:39;101090.09;;;1.36;86.06
59767;BME280;46248;58.364;25.582;2022-11-15T22:28:01;101094.41;;;1.35;85.85
59767;BME280;46248;58.364;25.582;2022-11-15T22:31:25;101082.38;;;1.36;86.56
59767;BME280;46248;58.364;25.582;2022-11-15T22:34:47;101081.50;;;1.35;86.43
59767;BME280;46248;58.364;25.582;2022-11-15T22:38:10;101087.53;;;1.36;86.85
59767;BME280;46248;58.364;25.582;2022-11-15T22:41:32;101097.84;;;1.37;86.79
59767;BME280;46248;58.364;25.582;2022-11-15T22:44:54;101087.53;;;1.37;87.35
59767;BME280;46248;58.364;25.582;2022-11-15T22:48:18;101088.41;;;1.32;88.00
59767;BME280;46248;58.364;25.582;2022-11-15T22:51:40;101101.28;;;1.38;88.22
59767;BME280;46248;58.364;25.582;2022-11-15T22:55:03;101103.88;;;1.38;88.44
59767;BME280;46248;58.364;25.582;2022-11-15T22:58:26;101100.44;;;1.33;87.59
59767;BME280;46248;58.364;25.582;2022-11-15T23:01:48;101113.34;;;1.34;86.81
59767;BME280;46248;58.364;25.582;2022-11-15T23:05:15;101108.19;;;1.27;85.81
59767;BME280;46248;58.364;25.582;2022-11-15T23:08:37;101116.81;;;1.26;86.11
59767;BME280;46248;58.364;25.582;2022-11-15T23:12:00;101120.28;;;1.20;86.15
59767;BME280;46248;58.364;25.582;2022-11-15T23:15:44;101133.19;;;1.14;85.88
59767;BME280;46248;58.364;25.582;2022-11-15T23:19:24;101117.72;;;1.12;85.42
59767;BME280;46248;58.364;25.582;2022-11-15T23:22:48;101119.44;;;1.15;85.87
59767;BME280;46248;58.364;25.582;2022-11-15T23:26:10;101116.00;;;1.11;85.88
59767;BME280;46248;58.364;25.582;2022-11-15T23:29:33;101119.41;;;1.12;86.28
59767;BME280;46248;58.364;25.582;2022-11-15T23:33:16;101133.22;;;1.06;86.25
59767;BME280;46248;58.364;25.582;2022-11-15T23:36:55;101128.06;;;1.06;86.33
59767;BME280;46248;58.364;25.582;2022-11-15T23:40:18;101119.44;;;1.06;86.75
59767;BME280;46248;58.364;25.582;2022-11-15T23:43:41;101107.47;;;0.86;86.21
59767;BME280;46248;58.364;25.582;2022-11-15T23:47:03;101127.22;;;1.01;86.79
59767;BME280;46248;58.364;25.582;2022-11-15T23:50:25;101133.22;;;1.00;86.69
59767;BME280;46248;58.364;25.582;2022-11-15T23:53:47;101138.41;;;1.00;87.10
59767;BME280;46248;58.364;25.582;2022-11-15T23:57:11;101126.38;;;0.95;87.04
